createdAt,value
2022-11-12T00:00:23.714Z,36.20
2022-11-12T00:03:45.466Z,32.30
2022-11-12T00:07:07.325Z,34.60
2022-11-12T00:10:28.786Z,34.35
2022-11-12T00:13:50.082Z,31.87
2022-11-12T00:17:11.518Z,35.50
2022-11-12T00:20:32.569Z,35.92
2022-11-12T00:23:53.776Z,35.35
2022-11-12T00:27:15.155Z,31.37
2022-11-12T00:30:39.686Z,28.43
2022-11-12T00:34:03.061Z,29.90
2022-11-12T00:37:25.257Z,31.52
2022-11-12T00:40:47.998Z,32.38
2022-11-12T00:44:09.526Z,26.65
2022-11-12T00:47:30.479Z,32.30
2022-11-12T00:50:51.970Z,27.97
2022-11-12T00:54:13.401Z,32.08
2022-11-12T00:57:34.835Z,26.95
2022-11-12T01:00:56.661Z,27.90
2022-11-12T01:04:18.050Z,28.63
2022-11-12T01:07:39.398Z,28.47
2022-11-12T01:11:07.542Z,25.10
2022-11-12T01:14:29.066Z,25.33
2022-11-12T01:17:50.303Z,24.90
2022-11-12T01:21:13.152Z,28.67
2022-11-12T01:24:34.298Z,27.93
2022-11-12T01:27:56.045Z,25.58
2022-11-12T01:31:18.476Z,29.10
2022-11-12T01:34:39.564Z,26.70
2022-11-12T01:38:00.850Z,25.50
2022-11-12T01:41:25.566Z,30.53
2022-11-12T01:44:48.758Z,27.27
2022-11-12T01:48:29.962Z,27.33
2022-11-12T01:51:54.908Z,27.23
2022-11-12T01:55:22.629Z,30.87
2022-11-12T01:58:46.142Z,26.70
2022-11-12T02:02:08.260Z,25.33
2022-11-12T02:05:31.550Z,29.63
2022-11-12T02:08:53.382Z,30.02
2022-11-12T02:12:35.057Z,26.47
2022-11-12T02:15:56.374Z,33.97
2022-11-12T02:19:17.930Z,30.80
2022-11-12T02:22:39.442Z,30.92
2022-11-12T02:26:01.099Z,34.33
2022-11-12T02:29:24.071Z,29.43
2022-11-12T02:32:45.581Z,29.30
2022-11-12T02:36:07.838Z,29.23
2022-11-12T02:39:29.268Z,28.58
2022-11-12T02:42:51.711Z,28.27
2022-11-12T02:46:13.677Z,27.10
2022-11-12T02:49:34.976Z,28.33
2022-11-12T02:52:57.028Z,26.00
2022-11-12T02:56:18.390Z,30.77
2022-11-12T02:59:39.569Z,29.37
2022-11-12T03:03:01.412Z,32.33
2022-11-12T03:06:22.462Z,32.90
2022-11-12T03:09:43.721Z,29.15
2022-11-12T03:13:05.457Z,31.35
2022-11-12T03:16:27.382Z,30.92
2022-11-12T03:19:48.892Z,36.23
2022-11-12T03:23:11.503Z,38.77
2022-11-12T03:26:35.827Z,34.17
2022-11-12T03:29:57.209Z,35.83
2022-11-12T03:33:19.863Z,42.25
2022-11-12T03:36:41.027Z,40.47
2022-11-12T03:40:02.329Z,36.03
2022-11-12T03:43:24.068Z,36.50
2022-11-12T03:46:45.707Z,33.13
2022-11-12T03:50:10.278Z,35.63
2022-11-12T03:53:31.276Z,37.07
2022-11-12T03:56:59.064Z,35.37
2022-11-12T04:00:22.769Z,38.53
2022-11-12T04:03:43.709Z,34.38
2022-11-12T04:07:23.629Z,32.70
2022-11-12T04:10:46.970Z,34.57
2022-11-12T04:14:09.190Z,32.93
2022-11-12T04:17:49.117Z,35.13
2022-11-12T04:21:34.118Z,32.90
2022-11-12T04:25:14.413Z,37.92
2022-11-12T04:28:35.436Z,32.90
2022-11-12T04:31:57.940Z,34.27
2022-11-12T04:35:19.268Z,34.03
2022-11-12T04:38:40.451Z,28.42
2022-11-12T04:42:20.307Z,30.88
2022-11-12T04:45:43.943Z,32.73
2022-11-12T04:49:05.726Z,32.90
2022-11-12T04:52:28.718Z,34.35
2022-11-12T04:55:52.090Z,31.40
2022-11-12T04:59:13.390Z,30.33
2022-11-12T05:02:35.904Z,32.37
2022-11-12T05:06:02.495Z,34.63
2022-11-12T05:09:27.190Z,34.17
2022-11-12T05:12:49.086Z,35.63
2022-11-12T05:16:10.146Z,34.78
2022-11-12T05:19:32.553Z,34.37
2022-11-12T05:23:06.403Z,35.10
2022-11-12T05:26:30.594Z,32.97
2022-11-12T05:29:52.024Z,33.97
2022-11-12T05:33:14.879Z,31.83
2022-11-12T05:36:35.966Z,36.57
2022-11-12T05:39:57.289Z,44.80
2022-11-12T05:43:18.519Z,40.22
2022-11-12T05:46:40.972Z,36.50
2022-11-12T05:50:06.787Z,36.05
2022-11-12T05:53:29.102Z,41.83
2022-11-12T05:56:53.492Z,39.40
2022-11-12T06:00:17.899Z,42.85
2022-11-12T06:03:42.878Z,40.53
2022-11-12T06:07:05.001Z,40.12
2022-11-12T06:10:27.935Z,42.03
2022-11-12T06:13:50.552Z,44.70
2022-11-12T06:17:14.192Z,44.03
2022-11-12T06:20:37.662Z,43.08
2022-11-12T06:24:01.452Z,47.92
2022-11-12T06:27:37.695Z,44.97
2022-11-12T06:31:00.274Z,46.27
2022-11-12T06:34:23.234Z,50.28
2022-11-12T06:37:49.869Z,50.47
2022-11-12T06:41:13.014Z,51.17
2022-11-12T06:44:34.779Z,44.37
2022-11-12T06:47:59.741Z,47.90
2022-11-12T06:51:23.266Z,48.90
2022-11-12T06:54:51.195Z,48.42
2022-11-12T06:58:29.128Z,48.25
2022-11-12T07:01:53.702Z,48.90
2022-11-12T07:05:17.200Z,42.50
2022-11-12T07:08:44.701Z,42.15
2022-11-12T07:12:10.691Z,46.92
2022-11-12T07:15:38.359Z,46.13
2022-11-12T07:19:00.262Z,43.67
2022-11-12T07:22:22.749Z,47.23
2022-11-12T07:26:03.294Z,43.65
2022-11-12T07:29:46.527Z,40.60
2022-11-12T07:33:14.207Z,41.28
2022-11-12T07:36:41.073Z,46.13
2022-11-12T07:40:04.913Z,44.30
2022-11-12T07:43:27.716Z,42.55
2022-11-12T07:46:50.848Z,43.25
2022-11-12T07:50:15.980Z,45.42
2022-11-12T07:53:40.711Z,41.93
2022-11-12T07:57:04.228Z,38.87
2022-11-12T08:00:38.819Z,46.65
2022-11-12T08:04:06.781Z,42.00
2022-11-12T08:07:28.966Z,45.90
2022-11-12T08:10:58.747Z,44.80
2022-11-12T08:14:27.555Z,41.13
2022-11-12T08:17:56.739Z,37.95
2022-11-12T08:21:20.919Z,41.75
2022-11-12T08:24:47.377Z,38.40
2022-11-12T08:28:11.751Z,45.33
2022-11-12T08:31:39.786Z,42.03
2022-11-12T08:35:01.984Z,37.97
2022-11-12T08:38:28.042Z,40.20
2022-11-12T08:41:51.126Z,34.50
2022-11-12T08:45:16.934Z,38.23
2022-11-12T08:48:43.431Z,41.43
2022-11-12T08:52:16.629Z,37.63
2022-11-12T08:55:39.251Z,41.22
2022-11-12T08:59:06.231Z,39.72
2022-11-12T09:02:30.186Z,38.30
2022-11-12T09:05:55.721Z,44.03
2022-11-12T09:09:25.615Z,39.65
2022-11-12T09:12:55.896Z,42.53
2022-11-12T09:16:18.839Z,45.15
2022-11-12T09:19:48.728Z,41.47
2022-11-12T09:23:15.513Z,44.13
2022-11-12T09:26:41.944Z,43.85
2022-11-12T09:30:13.900Z,42.60
2022-11-12T09:33:35.438Z,47.75
2022-11-12T09:37:04.863Z,41.30
2022-11-12T09:40:51.081Z,41.10
2022-11-12T09:44:24.334Z,39.85
2022-11-12T09:47:59.761Z,42.97
2022-11-12T09:51:29.032Z,43.22
2022-11-12T09:55:09.755Z,40.80
2022-11-12T09:58:32.669Z,38.03
2022-11-12T10:02:26.870Z,41.33
2022-11-12T10:06:10.702Z,39.15
2022-11-12T10:09:46.685Z,37.25
2022-11-12T10:13:33.916Z,39.40
2022-11-12T10:17:06.544Z,37.40
2022-11-12T10:20:39.694Z,38.47
2022-11-12T10:24:08.889Z,34.58
2022-11-12T10:27:40.503Z,40.90
2022-11-12T10:31:12.651Z,38.80
2022-11-12T10:34:41.151Z,38.63
2022-11-12T10:38:29.935Z,37.28
2022-11-12T10:42:04.396Z,39.50
2022-11-12T10:45:26.486Z,38.95
2022-11-12T10:49:08.192Z,39.43
2022-11-12T10:52:33.456Z,40.27
2022-11-12T10:56:03.806Z,39.80
2022-11-12T10:59:28.939Z,38.28
2022-11-12T11:02:55.921Z,41.37
2022-11-12T11:06:28.910Z,39.13
2022-11-12T11:09:58.187Z,39.67
2022-11-12T11:13:23.865Z,38.92
2022-11-12T11:16:56.708Z,35.50
2022-11-12T11:20:25.886Z,40.00
2022-11-12T11:24:04.870Z,37.13
2022-11-12T11:27:52.770Z,37.23
2022-11-12T11:31:40.909Z,40.60
2022-11-12T11:35:38.757Z,38.72
2022-11-12T11:39:26.956Z,38.75
2022-11-12T11:43:26.673Z,40.30
2022-11-12T11:46:53.675Z,36.27
2022-11-12T11:50:47.015Z,36.42
2022-11-12T11:54:52.951Z,35.83
2022-11-12T11:58:37.217Z,43.33
2022-11-12T12:02:32.885Z,38.70
2022-11-12T12:06:13.023Z,37.90
2022-11-12T12:10:09.518Z,39.15
2022-11-12T12:13:35.945Z,37.67
2022-11-12T12:17:12.513Z,39.85
2022-11-12T12:20:43.831Z,38.17
2022-11-12T12:24:38.153Z,39.23
2022-11-12T12:28:18.817Z,41.03
2022-11-12T12:31:51.125Z,35.20
2022-11-12T12:35:31.706Z,27.02
2022-11-12T12:39:14.009Z,32.00
2022-11-12T12:42:49.263Z,25.97
2022-11-12T12:46:14.843Z,24.67
2022-11-12T12:49:37.826Z,23.80
2022-11-12T12:53:22.855Z,22.50
2022-11-12T12:56:48.127Z,23.40
2022-11-12T13:00:30.070Z,23.83
2022-11-12T13:04:08.935Z,23.62
2022-11-12T13:07:49.406Z,27.80
2022-11-12T13:11:51.209Z,21.30
2022-11-12T13:15:43.070Z,21.13
2022-11-12T13:19:30.707Z,23.53
2022-11-12T13:23:03.689Z,24.17
2022-11-12T13:26:45.400Z,23.83
2022-11-12T13:30:21.651Z,31.15
2022-11-12T13:33:45.441Z,26.83
2022-11-12T13:37:27.098Z,25.43
2022-11-12T13:41:07.507Z,30.25
2022-11-12T13:44:32.714Z,29.67
2022-11-12T13:47:55.863Z,28.48
2022-11-12T13:51:27.936Z,33.13
2022-11-12T13:55:17.696Z,28.73
2022-11-12T13:58:50.607Z,30.62
2022-11-12T14:02:26.719Z,30.05
2022-11-12T14:05:51.691Z,32.15
2022-11-12T14:09:40.987Z,30.70
2022-11-12T14:13:34.621Z,30.57
2022-11-12T14:17:21.929Z,31.58
2022-11-12T14:20:45.163Z,29.15
2022-11-12T14:24:13.707Z,29.52
2022-11-12T14:27:40.084Z,31.30
2022-11-12T14:31:06.719Z,32.57
2022-11-12T14:34:35.791Z,32.95
2022-11-12T14:38:21.710Z,32.88
2022-11-12T14:41:47.881Z,31.65
2022-11-12T14:45:28.989Z,36.03
2022-11-12T14:49:04.893Z,34.63
2022-11-12T14:52:37.858Z,37.47
2022-11-12T14:56:07.524Z,34.40
2022-11-12T14:59:32.689Z,32.22
2022-11-12T15:02:59.532Z,32.93
2022-11-12T15:06:38.838Z,32.40
2022-11-12T15:10:41.774Z,31.15
2022-11-12T15:14:24.831Z,34.92
2022-11-12T15:18:07.631Z,35.83
2022-11-12T15:21:34.446Z,37.30
2022-11-12T15:25:10.976Z,40.83
2022-11-12T15:28:35.975Z,37.95
2022-11-12T15:31:58.760Z,37.55
2022-11-12T15:35:54.600Z,42.47
2022-11-12T15:39:20.883Z,41.27
2022-11-12T15:42:51.232Z,45.30
2022-11-12T15:46:19.375Z,45.05
2022-11-12T15:50:02.657Z,46.50
2022-11-12T15:53:31.753Z,52.65
2022-11-12T15:57:04.685Z,55.63
2022-11-12T16:00:41.668Z,53.30
2022-11-12T16:04:07.736Z,50.90
2022-11-12T16:07:30.305Z,48.67
2022-11-12T16:10:55.766Z,53.63
2022-11-12T16:14:25.887Z,52.97
2022-11-12T16:17:48.547Z,54.90
2022-11-12T16:21:21.902Z,49.97
2022-11-12T16:24:45.923Z,54.03
2022-11-12T16:28:21.895Z,51.03
2022-11-12T16:31:57.722Z,57.07
2022-11-12T16:35:27.681Z,102.37
2022-11-12T16:38:49.615Z,66.78
2022-11-12T16:42:13.311Z,69.05
2022-11-12T16:45:43.962Z,64.35
2022-11-12T16:49:14.974Z,62.67
2022-11-12T16:52:47.612Z,63.63
2022-11-12T16:56:18.777Z,60.88
2022-11-12T16:59:49.990Z,63.17
2022-11-12T17:03:20.832Z,59.80
2022-11-12T17:06:50.759Z,59.53
2022-11-12T17:10:14.630Z,54.70
2022-11-12T17:13:39.997Z,62.45
2022-11-12T17:17:02.870Z,61.72
2022-11-12T17:20:29.120Z,63.08
2022-11-12T17:24:03.703Z,63.97
2022-11-12T17:27:30.936Z,65.07
2022-11-12T17:31:12.043Z,63.65
2022-11-12T17:34:36.956Z,64.60
2022-11-12T17:38:07.678Z,60.42
2022-11-12T17:41:32.667Z,56.63
2022-11-12T17:45:03.662Z,56.83
2022-11-12T17:48:30.737Z,57.95
2022-11-12T17:52:01.651Z,55.42
2022-11-12T17:55:43.000Z,54.75
2022-11-12T17:59:14.745Z,60.37
2022-11-12T18:02:37.118Z,59.33
2022-11-12T18:06:01.011Z,59.65
2022-11-12T18:09:25.000Z,64.55
2022-11-12T18:12:54.862Z,59.20
2022-11-12T18:16:33.134Z,60.47
2022-11-12T18:19:57.679Z,60.47
2022-11-12T18:23:22.738Z,63.58
2022-11-12T18:26:46.299Z,61.88
2022-11-12T18:30:19.325Z,59.28
2022-11-12T18:33:47.612Z,60.87
2022-11-12T18:37:11.684Z,63.47
2022-11-12T18:40:40.858Z,60.00
2022-11-12T18:44:08.813Z,61.63
2022-11-12T18:47:41.874Z,59.97
2022-11-12T18:51:09.549Z,63.10
2022-11-12T18:54:45.296Z,65.33
2022-11-12T18:58:34.692Z,62.67
2022-11-12T19:01:59.785Z,63.75
2022-11-12T19:05:27.689Z,62.90
2022-11-12T19:09:00.637Z,65.87
2022-11-12T19:12:24.949Z,61.27
2022-11-12T19:15:54.679Z,65.12
2022-11-12T19:19:17.230Z,65.28
2022-11-12T19:22:42.921Z,61.70
2022-11-12T19:26:17.636Z,66.60
2022-11-12T19:29:40.600Z,60.80
2022-11-12T19:33:05.907Z,63.30
2022-11-12T19:36:36.197Z,66.78
2022-11-12T20:54:08.142Z,58.40
2022-11-12T20:57:43.596Z,61.45
2022-11-12T21:01:18.850Z,58.75
2022-11-12T21:04:48.768Z,66.03
2022-11-12T21:08:12.241Z,58.00
2022-11-12T21:11:34.911Z,59.63
2022-11-12T21:15:01.779Z,57.40
2022-11-12T21:18:36.656Z,55.55
2022-11-12T21:22:05.533Z,53.97
2022-11-12T21:25:38.417Z,57.97
2022-11-12T21:29:07.255Z,57.53
2022-11-12T21:32:36.188Z,56.60
2022-11-12T21:36:00.707Z,60.28
2022-11-12T21:39:23.761Z,52.65
2022-11-12T21:42:54.768Z,62.10
2022-11-12T21:46:24.146Z,62.30
2022-11-12T21:49:46.170Z,60.95
2022-11-12T21:53:07.829Z,57.22
2022-11-12T21:56:29.759Z,54.65
2022-11-12T21:59:52.155Z,54.90
2022-11-12T22:03:15.671Z,54.73
2022-11-12T22:06:38.934Z,55.72
2022-11-12T22:10:02.077Z,59.05
2022-11-12T22:13:33.095Z,56.08
2022-11-12T22:16:55.986Z,54.63
2022-11-12T22:20:19.137Z,53.63
2022-11-12T22:23:41.194Z,55.75
2022-11-12T22:27:05.731Z,57.00
2022-11-12T22:30:29.733Z,58.97
2022-11-12T22:33:51.695Z,52.97
2022-11-12T22:37:15.804Z,51.97
2022-11-12T22:40:41.969Z,60.92
2022-11-12T22:44:03.797Z,58.83
2022-11-12T22:47:26.350Z,55.55
2022-11-12T22:50:47.422Z,59.50
2022-11-12T22:54:10.217Z,52.03
2022-11-12T22:57:41.835Z,55.28
2022-11-12T23:01:05.642Z,56.40
2022-11-12T23:04:27.617Z,57.92
2022-11-12T23:07:49.055Z,61.33
2022-11-12T23:11:14.893Z,58.00
2022-11-12T23:14:36.930Z,60.00
2022-11-12T23:17:59.047Z,61.35
2022-11-12T23:21:25.087Z,57.88
2022-11-12T23:24:54.020Z,64.97
2022-11-12T23:28:17.605Z,60.67
2022-11-12T23:31:39.670Z,70.70
2022-11-12T23:35:00.976Z,66.55
2022-11-12T23:38:22.203Z,89.65
2022-11-12T23:41:43.571Z,78.80
2022-11-12T23:45:07.578Z,69.53
2022-11-12T23:48:38.987Z,133.75
2022-11-12T23:52:00.345Z,162.68
2022-11-12T23:55:23.901Z,106.12
2022-11-12T23:58:50.020Z,80.17
